createdAt,value
2022-11-16T00:01:08.449Z,30.57
2022-11-16T00:04:12.207Z,30.38
2022-11-16T00:07:14.958Z,30.25
2022-11-16T00:10:17.817Z,29.02
2022-11-16T00:13:20.973Z,29.63
2022-11-16T00:16:23.668Z,28.73
2022-11-16T00:19:28.523Z,29.60
2022-11-16T00:22:31.279Z,29.58
2022-11-16T00:25:33.982Z,29.95
2022-11-16T00:28:36.779Z,30.40
2022-11-16T00:31:39.467Z,30.83
2022-11-16T00:34:42.200Z,29.67
2022-11-16T00:37:44.874Z,31.33
2022-11-16T00:40:50.267Z,31.02
2022-11-16T00:43:52.866Z,31.30
2022-11-16T00:46:55.585Z,30.27
2022-11-16T00:49:58.225Z,30.33
2022-11-16T00:53:01.139Z,30.77
2022-11-16T00:56:05.207Z,31.67
2022-11-16T00:59:13.371Z,30.55
2022-11-16T01:02:18.280Z,29.97
2022-11-16T01:05:22.631Z,29.77
2022-11-16T01:08:25.499Z,31.10
2022-11-16T01:11:47.800Z,30.90
2022-11-16T01:14:50.517Z,30.63
2022-11-16T01:17:55.204Z,31.40
2022-11-16T01:20:57.919Z,30.77
2022-11-16T01:24:00.899Z,32.17
2022-11-16T01:27:03.727Z,31.10
2022-11-16T01:30:12.774Z,32.10
2022-11-16T01:33:19.876Z,32.77
2022-11-16T01:36:22.877Z,30.38
2022-11-16T01:39:25.737Z,31.20
2022-11-16T01:42:33.656Z,28.85
2022-11-16T01:45:42.483Z,31.00
2022-11-16T01:48:48.806Z,29.90
2022-11-16T01:51:58.772Z,30.25
2022-11-16T01:55:04.117Z,30.95
2022-11-16T01:58:21.155Z,29.60
2022-11-16T02:01:29.057Z,31.58
2022-11-16T02:04:35.644Z,31.57
2022-11-16T02:08:06.887Z,31.92
2022-11-16T02:11:54.062Z,30.52
2022-11-16T02:15:25.705Z,29.80
2022-11-16T02:19:11.478Z,30.25
2022-11-16T02:22:39.510Z,31.23
2022-11-16T02:26:01.464Z,31.20
2022-11-16T02:29:25.989Z,32.22
2022-11-16T02:32:34.578Z,33.92
2022-11-16T02:35:44.398Z,32.95
2022-11-16T02:39:01.051Z,32.17
2022-11-16T02:42:08.399Z,32.08
2022-11-16T02:45:17.519Z,32.95
2022-11-16T02:48:30.275Z,32.97
2022-11-16T02:51:36.236Z,31.08
2022-11-16T02:54:39.357Z,30.00
2022-11-16T02:57:49.481Z,30.02
2022-11-16T03:01:06.579Z,29.25
2022-11-16T03:04:26.893Z,29.70
2022-11-16T03:07:35.085Z,29.88
2022-11-16T03:10:59.153Z,30.30
2022-11-16T03:14:13.652Z,30.67
2022-11-16T03:17:26.549Z,29.52
2022-11-16T03:20:34.081Z,29.48
2022-11-16T03:23:37.352Z,29.25
2022-11-16T03:27:00.745Z,28.57
2022-11-16T03:30:14.841Z,29.02
2022-11-16T03:33:32.704Z,30.88
2022-11-16T03:36:39.037Z,29.95
2022-11-16T03:39:42.962Z,29.05
2022-11-16T03:42:49.690Z,30.00
2022-11-16T03:45:53.386Z,29.08
2022-11-16T03:48:58.798Z,30.17
2022-11-16T03:52:06.105Z,28.98
2022-11-16T03:55:09.783Z,29.20
2022-11-16T03:58:12.587Z,28.93
2022-11-16T04:01:15.579Z,30.45
2022-11-16T04:04:37.911Z,28.35
2022-11-16T04:07:59.380Z,27.83
2022-11-16T04:11:21.044Z,28.08
2022-11-16T04:14:44.005Z,28.60
2022-11-16T04:18:08.434Z,29.83
2022-11-16T04:21:38.370Z,30.48
2022-11-16T04:24:44.412Z,28.35
2022-11-16T04:28:06.233Z,29.90
2022-11-16T04:31:27.351Z,28.83
2022-11-16T04:34:54.812Z,29.33
2022-11-16T04:37:59.379Z,28.67
2022-11-16T04:41:26.499Z,29.85
2022-11-16T04:44:49.293Z,30.48
2022-11-16T04:47:53.458Z,29.67
2022-11-16T04:51:00.354Z,31.05
2022-11-16T04:54:03.309Z,32.65
2022-11-16T04:57:06.000Z,31.17
2022-11-16T05:00:09.642Z,30.65
2022-11-16T05:03:14.615Z,30.50
2022-11-16T05:06:17.737Z,32.40
2022-11-16T05:09:21.276Z,31.13
2022-11-16T05:12:26.072Z,31.58
2022-11-16T05:15:32.709Z,32.22
2022-11-16T05:18:36.828Z,31.27
2022-11-16T05:21:40.193Z,33.05
2022-11-16T05:24:44.809Z,33.45
2022-11-16T05:27:47.541Z,32.58
2022-11-16T05:30:50.307Z,35.40
2022-11-16T05:33:57.435Z,36.53
2022-11-16T05:37:00.458Z,45.90
2022-11-16T05:40:04.443Z,42.55
2022-11-16T05:43:16.884Z,38.45
2022-11-16T05:46:28.456Z,38.80
2022-11-16T05:49:34.039Z,38.37
2022-11-16T05:52:36.762Z,36.30
2022-11-16T05:55:43.465Z,38.78
2022-11-16T05:58:47.099Z,41.63
2022-11-16T06:01:51.176Z,43.97
2022-11-16T06:04:54.289Z,42.40
2022-11-16T06:07:57.340Z,42.20
2022-11-16T06:11:08.481Z,39.92
2022-11-16T06:14:12.542Z,38.80
2022-11-16T06:17:15.565Z,37.63
2022-11-16T06:20:19.332Z,33.40
2022-11-16T06:23:22.600Z,33.60
2022-11-16T06:26:29.415Z,31.95
2022-11-16T06:29:32.792Z,32.88
2022-11-16T06:32:36.000Z,31.20
2022-11-16T06:35:40.476Z,30.63
2022-11-16T06:38:46.668Z,29.90
2022-11-16T06:41:52.337Z,31.02
2022-11-16T06:44:56.620Z,31.10
2022-11-16T06:48:05.150Z,29.98
2022-11-16T06:51:09.953Z,29.73
2022-11-16T06:54:12.849Z,29.10
2022-11-16T06:57:15.856Z,30.45
2022-11-16T07:00:19.633Z,30.27
2022-11-16T07:03:23.774Z,30.70
2022-11-16T07:06:26.847Z,30.53
2022-11-16T07:09:31.430Z,31.30
2022-11-16T07:12:34.117Z,31.67
2022-11-16T07:15:37.880Z,32.13
2022-11-16T07:18:42.068Z,33.38
2022-11-16T07:21:45.023Z,33.50
2022-11-16T07:24:52.805Z,34.05
2022-11-16T07:27:58.740Z,34.13
2022-11-16T07:31:11.306Z,30.85
2022-11-16T07:34:14.351Z,33.20
2022-11-16T07:37:28.193Z,30.30
2022-11-16T07:40:30.928Z,31.58
2022-11-16T07:43:37.228Z,31.95
2022-11-16T07:46:48.133Z,27.77
2022-11-16T07:49:52.252Z,30.80
2022-11-16T07:52:57.211Z,31.90
2022-11-16T07:56:00.783Z,31.25
2022-11-16T07:59:06.657Z,30.70
2022-11-16T08:02:12.893Z,30.85
2022-11-16T08:05:17.161Z,28.27
2022-11-16T08:08:22.301Z,31.37
2022-11-16T08:11:25.765Z,30.83
2022-11-16T08:14:28.910Z,31.73
2022-11-16T08:17:32.445Z,30.48
2022-11-16T08:20:37.031Z,30.15
2022-11-16T08:23:40.970Z,28.93
2022-11-16T08:26:43.772Z,28.83
2022-11-16T08:29:49.226Z,31.25
2022-11-16T08:32:51.899Z,29.33
2022-11-16T08:35:55.436Z,27.98
2022-11-16T08:38:58.441Z,29.07
2022-11-16T08:42:01.225Z,28.33
2022-11-16T08:45:04.209Z,29.73
2022-11-16T08:48:07.194Z,26.70
2022-11-16T08:51:19.684Z,27.38
2022-11-16T08:54:30.041Z,28.63
2022-11-16T08:57:33.658Z,29.42
2022-11-16T09:00:40.842Z,28.35
2022-11-16T09:03:44.542Z,27.42
2022-11-16T09:06:47.505Z,28.10
2022-11-16T09:09:50.382Z,28.10
2022-11-16T09:12:53.172Z,28.00
2022-11-16T09:15:57.587Z,27.42
2022-11-16T09:19:01.897Z,26.15
2022-11-16T09:22:25.852Z,26.33
2022-11-16T09:25:28.715Z,26.47
2022-11-16T09:28:32.527Z,25.35
2022-11-16T09:31:38.361Z,26.17
2022-11-16T09:34:42.849Z,31.45
2022-11-16T09:37:46.013Z,34.08
2022-11-16T09:40:51.542Z,32.27
2022-11-16T09:44:06.607Z,31.40
2022-11-16T09:47:23.767Z,28.00
2022-11-16T09:50:53.008Z,27.42
2022-11-16T09:53:58.298Z,25.48
2022-11-16T09:57:12.170Z,24.07
2022-11-16T10:00:23.660Z,23.25
2022-11-16T10:03:38.957Z,23.67
2022-11-16T10:06:53.888Z,25.10
2022-11-16T10:09:57.069Z,23.63
2022-11-16T10:13:20.677Z,23.03
2022-11-16T10:16:38.397Z,23.48
2022-11-16T10:19:47.504Z,24.23
2022-11-16T10:23:00.351Z,23.75
2022-11-16T10:26:16.018Z,24.63
2022-11-16T10:29:45.333Z,24.13
2022-11-16T10:33:10.864Z,23.15
2022-11-16T10:36:15.811Z,23.42
2022-11-16T10:39:20.619Z,24.92
2022-11-16T10:42:36.610Z,25.63
2022-11-16T10:45:43.692Z,23.63
2022-11-16T10:48:55.655Z,24.50
2022-11-16T10:51:58.555Z,25.83
2022-11-16T10:55:01.288Z,27.30
2022-11-16T10:58:05.765Z,28.33
2022-11-16T11:01:12.783Z,27.30
2022-11-16T11:04:22.196Z,28.77
2022-11-16T11:07:59.972Z,31.73
2022-11-16T11:11:25.340Z,29.35
2022-11-16T11:14:28.067Z,28.95
2022-11-16T11:17:32.576Z,25.53
2022-11-16T11:20:39.053Z,25.58
2022-11-16T11:23:49.364Z,24.92
2022-11-16T11:26:59.222Z,25.35
2022-11-16T11:30:02.395Z,25.23
2022-11-16T11:33:12.293Z,24.70
2022-11-16T11:36:38.564Z,23.98
2022-11-16T11:39:41.317Z,24.27
2022-11-16T11:43:01.242Z,24.58
2022-11-16T11:46:15.612Z,24.98
2022-11-16T11:49:33.291Z,26.10
2022-11-16T11:52:47.167Z,27.33
2022-11-16T11:55:59.922Z,28.90
2022-11-16T11:59:04.976Z,25.77
2022-11-16T12:02:28.512Z,25.90
2022-11-16T12:05:56.479Z,24.13
2022-11-16T12:09:16.317Z,22.92
2022-11-16T12:12:35.974Z,23.00
2022-11-16T12:16:16.978Z,22.65
2022-11-16T12:19:59.631Z,21.70
2022-11-16T12:23:14.712Z,21.33
2022-11-16T12:26:23.228Z,21.88
2022-11-16T12:29:37.342Z,22.27
2022-11-16T12:32:52.504Z,21.50
2022-11-16T12:36:00.917Z,22.05
2022-11-16T12:39:22.727Z,22.07
2022-11-16T12:42:33.360Z,21.10
2022-11-16T12:45:39.002Z,21.38
2022-11-16T12:49:04.092Z,19.58
2022-11-16T12:52:56.909Z,21.20
2022-11-16T12:56:33.925Z,19.67
2022-11-16T12:59:45.721Z,22.35
2022-11-16T13:03:09.488Z,23.38
2022-11-16T13:06:16.873Z,22.77
2022-11-16T13:09:30.901Z,24.15
2022-11-16T13:12:36.124Z,21.03
2022-11-16T13:15:41.227Z,21.60
2022-11-16T13:18:44.601Z,22.35
2022-11-16T13:22:17.353Z,23.65
2022-11-16T13:25:30.867Z,24.83
2022-11-16T13:28:47.651Z,22.40
2022-11-16T13:32:13.377Z,22.73
2022-11-16T13:35:18.304Z,25.58
2022-11-16T13:38:53.051Z,25.83
2022-11-16T13:42:12.316Z,27.45
2022-11-16T13:45:20.838Z,27.50
2022-11-16T13:48:35.562Z,27.33
2022-11-16T13:51:38.760Z,27.85
2022-11-16T13:54:46.427Z,25.40
2022-11-16T13:57:55.689Z,25.80
2022-11-16T14:01:16.152Z,26.30
2022-11-16T14:04:40.979Z,25.40
2022-11-16T14:07:50.017Z,26.13
2022-11-16T14:10:52.876Z,28.50
2022-11-16T14:13:55.825Z,30.52
2022-11-16T14:16:58.894Z,29.17
2022-11-16T14:20:02.596Z,25.63
2022-11-16T14:23:27.332Z,27.13
2022-11-16T14:26:57.382Z,26.55
2022-11-16T14:30:22.844Z,33.17
2022-11-16T14:33:31.764Z,35.57
2022-11-16T14:36:42.659Z,37.72
2022-11-16T14:39:45.479Z,35.70
2022-11-16T14:43:15.353Z,34.28
2022-11-16T14:46:34.853Z,33.85
2022-11-16T14:49:38.051Z,28.00
2022-11-16T14:52:47.601Z,32.83
2022-11-16T14:55:50.394Z,36.22
2022-11-16T14:58:57.036Z,35.15
2022-11-16T15:02:05.886Z,31.48
2022-11-16T15:05:16.900Z,29.97
2022-11-16T15:08:26.463Z,31.20
2022-11-16T15:12:04.315Z,28.42
2022-11-16T15:15:13.620Z,29.83
2022-11-16T15:18:22.102Z,32.33
2022-11-16T15:21:25.808Z,32.70
2022-11-16T15:24:34.182Z,31.55
2022-11-16T15:27:40.531Z,34.20
2022-11-16T15:30:46.931Z,37.22
2022-11-16T15:33:50.672Z,33.13
2022-11-16T15:36:53.348Z,33.50
2022-11-16T15:39:58.108Z,32.17
2022-11-16T15:43:04.041Z,33.97
2022-11-16T15:46:08.524Z,32.70
2022-11-16T15:49:30.594Z,35.90
2022-11-16T15:52:44.153Z,35.83
2022-11-16T15:55:50.227Z,36.00
2022-11-16T15:58:55.087Z,37.83
2022-11-16T16:01:58.225Z,40.45
2022-11-16T16:05:03.558Z,42.35
2022-11-16T16:08:23.566Z,40.83
2022-11-16T16:11:28.270Z,39.25
2022-11-16T16:14:31.835Z,39.38
2022-11-16T16:17:34.482Z,39.08
2022-11-16T16:20:37.951Z,38.55
2022-11-16T16:23:46.232Z,39.40
2022-11-16T16:26:49.049Z,37.13
2022-11-16T16:29:53.725Z,35.60
2022-11-16T16:32:57.034Z,35.72
2022-11-16T16:35:59.822Z,35.97
2022-11-16T16:39:03.170Z,37.43
2022-11-16T16:42:12.055Z,38.90
2022-11-16T16:45:22.328Z,41.20
2022-11-16T16:48:25.204Z,43.22
2022-11-16T16:51:28.375Z,41.42
2022-11-16T16:54:34.817Z,36.03
2022-11-16T16:57:40.781Z,37.60
2022-11-16T17:00:43.583Z,35.13
2022-11-16T17:03:47.386Z,37.08
2022-11-16T17:06:52.337Z,37.08
2022-11-16T17:09:55.095Z,34.13
2022-11-16T17:12:57.903Z,35.88
2022-11-16T17:16:04.689Z,38.92
2022-11-16T17:19:08.982Z,40.42
2022-11-16T17:22:12.378Z,46.10
2022-11-16T17:25:15.325Z,52.03
2022-11-16T17:28:18.133Z,52.72
2022-11-16T17:31:21.249Z,51.47
2022-11-16T17:34:24.130Z,48.08
2022-11-16T17:37:26.836Z,51.83
2022-11-16T17:40:29.938Z,43.23
2022-11-16T17:43:33.639Z,45.90
2022-11-16T17:46:37.161Z,44.50
2022-11-16T17:49:40.550Z,43.53
2022-11-16T17:52:43.344Z,44.30
2022-11-16T17:55:46.233Z,40.70
2022-11-16T17:58:52.659Z,40.42
2022-11-16T18:01:55.524Z,39.72
2022-11-16T18:04:58.405Z,40.08
2022-11-16T18:08:01.399Z,40.75
2022-11-16T18:11:09.938Z,40.93
2022-11-16T18:14:12.815Z,41.30
2022-11-16T18:17:15.591Z,43.83
2022-11-16T18:20:18.350Z,45.03
2022-11-16T18:23:21.417Z,48.47
2022-11-16T18:26:24.833Z,49.63
2022-11-16T18:29:27.805Z,46.00
2022-11-16T18:32:30.776Z,46.38
2022-11-16T18:35:33.785Z,45.63
2022-11-16T18:38:37.650Z,51.50
2022-11-16T18:41:50.160Z,52.43
2022-11-16T18:44:57.063Z,60.67
2022-11-16T18:47:59.988Z,65.68
2022-11-16T18:51:04.536Z,60.40
2022-11-16T18:54:08.646Z,54.58
2022-11-16T18:57:11.454Z,49.43
2022-11-16T19:00:15.406Z,45.10
2022-11-16T19:03:18.563Z,42.83
2022-11-16T19:06:22.638Z,37.28
2022-11-16T19:09:25.640Z,36.40
2022-11-16T19:12:28.910Z,36.93
2022-11-16T19:15:34.118Z,34.47
2022-11-16T19:18:38.475Z,31.83
2022-11-16T19:21:42.257Z,23.95
2022-11-16T19:24:45.311Z,15.13
2022-11-16T19:27:48.313Z,13.30
2022-11-16T19:30:51.396Z,10.70
2022-11-16T19:34:13.380Z,11.70
2022-11-16T19:37:17.062Z,12.27
2022-11-16T19:40:24.870Z,12.55
2022-11-16T19:43:28.299Z,12.87
2022-11-16T19:46:32.999Z,12.38
2022-11-16T19:49:36.303Z,12.75
2022-11-16T19:52:39.704Z,12.40
2022-11-16T19:55:44.256Z,12.43
2022-11-16T19:58:48.241Z,11.30
2022-11-16T20:01:51.367Z,12.00
2022-11-16T20:04:54.322Z,11.57
2022-11-16T20:07:57.033Z,12.88
2022-11-16T20:10:59.726Z,13.65
2022-11-16T20:14:04.884Z,13.40
2022-11-16T20:17:08.079Z,14.15
2022-11-16T20:20:11.348Z,14.52
2022-11-16T20:23:15.697Z,14.68
2022-11-16T20:26:20.579Z,15.50
2022-11-16T20:29:23.749Z,13.87
2022-11-16T20:32:27.489Z,15.20
2022-11-16T20:35:30.469Z,14.77
2022-11-16T20:38:34.681Z,15.18
2022-11-16T20:41:37.832Z,14.05
2022-11-16T20:44:40.858Z,15.13
2022-11-16T20:47:43.772Z,14.30
2022-11-16T20:50:51.835Z,14.30
2022-11-16T20:53:54.799Z,14.48
2022-11-16T20:56:57.513Z,14.68
2022-11-16T21:00:00.890Z,14.63
2022-11-16T21:03:03.835Z,14.02
2022-11-16T21:06:10.239Z,14.50
2022-11-16T21:09:15.673Z,14.02
2022-11-16T21:12:42.534Z,14.25
2022-11-16T21:15:54.485Z,17.07
2022-11-16T21:18:57.427Z,15.85
2022-11-16T21:22:00.277Z,18.73
2022-11-16T21:25:03.234Z,12.95
2022-11-16T21:28:05.944Z,12.60
2022-11-16T21:31:11.649Z,12.30
2022-11-16T21:34:14.367Z,11.55
2022-11-16T21:37:17.054Z,11.57
2022-11-16T21:40:19.856Z,11.20
2022-11-16T21:43:22.619Z,11.30
2022-11-16T21:46:26.773Z,11.10
2022-11-16T21:49:29.438Z,11.55
2022-11-16T21:52:32.060Z,11.80
2022-11-16T21:55:35.364Z,9.68
2022-11-16T21:58:39.320Z,9.35
2022-11-16T22:02:00.329Z,8.57
2022-11-16T22:05:21.755Z,8.80
2022-11-16T22:08:24.728Z,8.25
2022-11-16T22:11:27.536Z,8.32
2022-11-16T22:14:30.278Z,8.15
2022-11-16T22:17:33.485Z,8.40
2022-11-16T22:20:36.190Z,8.60
2022-11-16T22:23:39.216Z,9.13
2022-11-16T22:26:42.431Z,8.98
2022-11-16T22:29:45.108Z,8.57
2022-11-16T22:32:47.829Z,8.73
2022-11-16T22:35:50.504Z,7.57
2022-11-16T22:38:53.431Z,9.02
2022-11-16T22:41:56.197Z,8.60
2022-11-16T22:44:58.959Z,10.00
2022-11-16T22:48:01.604Z,9.30
2022-11-16T22:51:19.740Z,9.80
2022-11-16T22:54:28.331Z,10.88
2022-11-16T22:57:31.450Z,11.25
2022-11-16T23:00:40.560Z,11.20
2022-11-16T23:03:45.110Z,11.67
2022-11-16T23:06:47.878Z,12.00
2022-11-16T23:09:50.506Z,12.40
2022-11-16T23:13:12.236Z,12.43
2022-11-16T23:16:14.972Z,12.77
2022-11-16T23:19:38.428Z,11.90
2022-11-16T23:22:59.825Z,12.15
2022-11-16T23:26:24.347Z,11.98
2022-11-16T23:29:27.028Z,12.10
2022-11-16T23:32:30.858Z,12.35
2022-11-16T23:35:33.585Z,12.90
2022-11-16T23:38:36.426Z,12.10
2022-11-16T23:41:57.736Z,12.20
2022-11-16T23:45:00.556Z,11.73
2022-11-16T23:48:03.314Z,12.65
2022-11-16T23:51:06.224Z,11.57
2022-11-16T23:54:08.873Z,12.75
2022-11-16T23:57:11.718Z,12.82
